Billie H — WCY4992 — position and weather

sailwx.info

Track history (hours):
 
Tides and Currents Weather Stations Pressure Air Temp Water Temp Dewpoint Dewpoint Depression Visibility Wind Speed Wind Dir Waves Ship Positions

Billie H

Owner: BOYER TOWING INC, KETCHIKAN, AK. More information available from US FCC via Universal Licensing System and Coast Guard Vessel Documentation Center.

Last reported at 2017-Sep-20 09:07 UTC. Time now 2017-Oct-23 00:53 UTC.
Position N 58°16' W 136°12'.
Warning: this ship's position is 32 days out of date.

Type: Tow > 200 m length. MMSI: 366751770.

Date/timePositionNaut miles runAvg speedWind from/ knotsBaromVisibWave heightAir tempDewpointWater temp
2017-Sep-20 09:07N 58°16' W 136°12'3 8.4
2017-Sep-20 08:42N 58°15' W 136°06'2 8.1
2017-Sep-20 08:29N 58°16' W 136°03'3 7.0
2017-Sep-20 08:00N 58°17' W 135°57'4 7.8
2017-Sep-20 07:30N 58°18' W 135°49'4 7.2
2017-Sep-20 07:00N 58°17' W 135°43'279 6.9
2017-Sep-18 14:35N 54°32' W 130°43'1 9.0
2017-Sep-18 14:26N 54°31' W 130°42'4 8.9
2017-Sep-18 14:00N 54°27' W 130°40'5 9.3
2017-Sep-18 13:30N 54°23' W 130°37'5 9.1
2017-Sep-18 13:00N 54°19' W 130°35'5 9.1
2017-Sep-18 12:30N 54°15' W 130°31'5 9.4
2017-Sep-18 12:00N 54°11' W 130°27'5 9.4
2017-Sep-18 11:30N 54°07' W 130°23'5 9.3
2017-Sep-18 11:00N 54°04' W 130°16'4 8.9
2017-Sep-18 10:30N 53°60' W 130°13'5 9.2
2017-Sep-18 10:00N 53°55' W 130°11'4 8.7
2017-Sep-18 09:30N 53°53' W 130°05'103 8.3
2017-Sep-17 21:06N 52°29' W 128°27'1 9.2
2017-Sep-17 20:58N 52°27' W 128°27'4 8.9
2017-Sep-17 20:30N 52°24' W 128°31'20 6.8
2017-Sep-17 17:34N 52°09' W 128°08'1 7.9
2017-Sep-17 17:30N 52°09' W 128°08'4 8.5
2017-Sep-17 17:00N 52°05' W 128°05'6 8.9
2017-Sep-17 16:23N 52°04' W 127°56'3 8.7
2017-Sep-17 16:00N 52°01' W 127°56'5 9.2
2017-Sep-17 15:30N 51°56' W 127°56'5 9.1
2017-Sep-17 15:00N 51°52' W 127°56'5 9.3
2017-Sep-17 14:30N 51°47' W 127°55'5 9.4
2017-Sep-17 14:00N 51°42' W 127°54'5 9.4
2017-Sep-17 13:30N 51°38' W 127°53'4 8.8
2017-Sep-17 13:00N 51°33' W 127°52'4 8.8
2017-Sep-17 12:30N 51°29' W 127°51'5 8.6
2017-Sep-17 11:58N 51°24' W 127°52'6 8.6
2017-Sep-17 11:13N 51°18' W 127°52'3 8.9
2017-Sep-17 10:51N 51°15' W 127°52'3 9.0
2017-Sep-17 10:30N 51°12' W 127°51'5 9.2
2017-Sep-17 10:00N 51°07' W 127°48'5 9.7
2017-Sep-17 09:30N 51°04' W 127°42'5 9.9
2017-Sep-17 09:00N 51°01' W 127°37'5 9.5
2017-Sep-17 08:30N 50°58' W 127°31'5 9.8
2017-Sep-17 08:00N 50°55' W 127°25'5 9.3
2017-Sep-17 07:29N 50°52' W 127°18'5 9.4
2017-Sep-17 06:58N 50°50' W 127°12'4 9.1
2017-Sep-17 06:30N 50°47' W 127°06'10 8.8
2017-Sep-17 05:21N 50°41' W 126°53'4 8.3
2017-Sep-17 04:49N 50°38' W 126°48'3 8.9
2017-Sep-17 04:29N 50°36' W 126°45'5 8.6
2017-Sep-17 03:57N 50°32' W 126°41'4 9.5
2017-Sep-17 03:30N 50°31' W 126°35'5 9.7
2017-Sep-17 03:00N 50°30' W 126°27'6 9.6
2017-Sep-17 02:23N 50°30' W 126°18'4 9.6
2017-Sep-17 02:00N 50°29' W 126°12'1710.9
2017-Sep-17 00:26N 50°23' W 125°47'1310.9
2017-Sep-16 23:13N 50°20' W 125°27'2 8.7
2017-Sep-16 23:00N 50°19' W 125°25'5 9.6
2017-Sep-16 22:30N 50°14' W 125°23'5 9.1
2017-Sep-16 22:00N 50°10' W 125°21'3 5.7
2017-Sep-16 21:31N 50°07' W 125°19'2 3.9
2017-Sep-16 21:00N 50°06' W 125°17'2 4.2
2017-Sep-16 20:30N 50°04' W 125°15'2 4.5
2017-Sep-16 20:00N 50°02' W 125°14'3 6.1
2017-Sep-16 19:30N 49°60' W 125°12'4 8.7
2017-Sep-16 19:00N 49°57' W 125°06'5 9.0
2017-Sep-16 18:30N 49°54' W 125°01'4 9.0
2017-Sep-16 18:00N 49°51' W 124°55'4 8.5
2017-Sep-16 17:30N 49°49' W 124°50'4 8.5
2017-Sep-16 17:00N 49°46' W 124°45'4 8.5
2017-Sep-16 16:30N 49°43' W 124°40'4 8.8
2017-Sep-16 16:00N 49°40' W 124°35'5 9.3
2017-Sep-16 15:30N 49°37' W 124°29'5 9.2
2017-Sep-16 15:00N 49°35' W 124°23'4 8.9
2017-Sep-16 14:30N 49°33' W 124°17'4 8.6
2017-Sep-16 14:00N 49°31' W 124°12'4 8.7
2017-Sep-16 13:30N 49°28' W 124°06'4 8.6
2017-Sep-16 13:00N 49°26' W 124°01'4 8.3
2017-Sep-16 12:30N 49°24' W 123°55'4 8.6
2017-Sep-16 12:00N 49°22' W 123°49'4 8.3
2017-Sep-16 11:30N 49°19' W 123°44'4 8.3
2017-Sep-16 11:00N 49°16' W 123°39'4 8.3
2017-Sep-16 10:30N 49°14' W 123°34'4 8.4
2017-Sep-16 10:00N 49°11' W 123°30'4 8.8
2017-Sep-16 09:30N 49°07' W 123°26'4 9.0
2017-Sep-16 09:00N 49°04' W 123°21'5 9.1
2017-Sep-16 08:30N 49°01' W 123°16'5 9.2
2017-Sep-16 08:00N 48°58' W 123°11'4 8.8
2017-Sep-16 07:30N 48°55' W 123°05'5 9.2
2017-Sep-16 07:00N 48°52' W 123°00'5 9.4
2017-Sep-16 06:30N 48°49' W 122°55'4 9.0
2017-Sep-16 06:00N 48°47' W 122°49'5 9.0
2017-Sep-16 05:30N 48°43' W 122°44'4 8.1
2017-Sep-16 05:00N 48°39' W 122°43'4 7.9
2017-Sep-16 04:30N 48°36' W 122°45'4 7.8
2017-Sep-16 04:00N 48°32' W 122°44'4 8.1
2017-Sep-16 03:30N 48°28' W 122°44'4 8.1
2017-Sep-16 02:59N 48°24' W 122°44'19 8.3
2017-Sep-16 00:43N 48°05' W 122°38'310.8
2017-Sep-16 00:27N 48°02' W 122°38'510.7
2017-Sep-16 00:00N 47°58' W 122°34'5 9.8
2017-Sep-15 23:30N 47°55' W 122°29'5 9.4
2017-Sep-15 23:00N 47°50' W 122°27'5 9.1
2017-Sep-15 22:30N 47°46' W 122°26'5 9.4
2017-Sep-15 22:00N 47°41' W 122°27'4 7.9
2017-Sep-15 21:30N 47°38' W 122°24'3 5.6
2017-Sep-15 21:00N 47°35' W 122°22'0 0.1
2017-Sep-15 20:30N 47°35' W 122°22'1 2.9
2017-Sep-15 20:01N 47°34' W 122°21'2 3.5
2017-Sep-15 19:30N 47°32' W 122°20'0 0.4
2017-Sep-15 19:00N 47°32' W 122°20'0 0.2
2017-Sep-15 18:30N 47°32' W 122°20'0 0.0
2017-Sep-15 18:00N 47°32' W 122°20'0 0.0
2017-Sep-15 17:30N 47°32' W 122°20'0 0.0
2017-Sep-15 17:00N 47°32' W 122°20'0 0.0
2017-Sep-15 16:30N 47°32' W 122°20'0 0.0
2017-Sep-15 16:00N 47°32' W 122°20'0 0.1
2017-Sep-15 15:30N 47°32' W 122°20'0 0.0
2017-Sep-15 15:00N 47°32' W 122°20'0 0.0
2017-Sep-15 14:30N 47°32' W 122°20'0 0.0
2017-Sep-15 14:00N 47°32' W 122°20'0 0.0
2017-Sep-15 13:30N 47°32' W 122°20'0 0.0
2017-Sep-15 13:00N 47°32' W 122°20'0 0.0
2017-Sep-15 12:30N 47°32' W 122°20'0 0.0
2017-Sep-15 12:00N 47°32' W 122°20'0 0.0
2017-Sep-15 11:30N 47°32' W 122°20'0 0.0
2017-Sep-15 11:00N 47°32' W 122°20'0 0.0
2017-Sep-15 10:30N 47°32' W 122°20'0 0.0
2017-Sep-15 10:00N 47°32' W 122°20'0 0.0
2017-Sep-15 09:30N 47°32' W 122°20'0 0.0
2017-Sep-15 09:00N 47°32' W 122°20'0 0.0
2017-Sep-15 08:30N 47°32' W 122°20'0 0.0
2017-Sep-15 08:00N 47°32' W 122°20'0 0.0
2017-Sep-15 07:30N 47°32' W 122°20'0 0.0
2017-Sep-15 07:00N 47°32' W 122°20'0 0.0
2017-Sep-15 06:30N 47°32' W 122°20'0 0.0
2017-Sep-15 06:00N 47°32' W 122°20'0 0.0
2017-Sep-15 05:31N 47°32' W 122°20'1 2.9
2017-Sep-15 05:00N 47°34' W 122°21'2 3.4
2017-Sep-15 04:30N 47°35' W 122°21'0 0.0
2017-Sep-15 04:00N 47°35' W 122°21'0 0.0
2017-Sep-15 03:30N 47°35' W 122°21'0 0.0
2017-Sep-15 03:00N 47°35' W 122°21'0 0.0
2017-Sep-15 02:30N 47°35' W 122°21'0 0.6
2017-Sep-15 02:00N 47°35' W 122°22'3 6.2
2017-Sep-15 01:30N 47°32' W 122°20'  
Track history (hours):
 
Tides and Currents Weather Stations Pressure Air Temp Water Temp Dewpoint Dewpoint Depression Visibility Wind Speed Wind Dir Waves Ship Positions

Billie H

Owner: BOYER TOWING INC, KETCHIKAN, AK. More information available from US FCC via Universal Licensing System and Coast Guard Vessel Documentation Center.

Last reported at 2017-Sep-20 09:07 UTC. Time now 2017-Oct-23 00:53 UTC.
Position N 58°16' W 136°12'.
Warning: this ship's position is 32 days out of date.

Type: Tow > 200 m length. MMSI: 366751770.

Date/timePositionNaut miles runAvg speedWind from/ knotsBaromVisibWave heightAir tempDewpointWater temp
2017-Sep-20 09:07N 58°16' W 136°12'3 8.4
2017-Sep-20 08:42N 58°15' W 136°06'2 8.1
2017-Sep-20 08:29N 58°16' W 136°03'3 7.0
2017-Sep-20 08:00N 58°17' W 135°57'4 7.8
2017-Sep-20 07:30N 58°18' W 135°49'4 7.2
2017-Sep-20 07:00N 58°17' W 135°43'279 6.9
2017-Sep-18 14:35N 54°32' W 130°43'1 9.0
2017-Sep-18 14:26N 54°31' W 130°42'4 8.9
2017-Sep-18 14:00N 54°27' W 130°40'5 9.3
2017-Sep-18 13:30N 54°23' W 130°37'5 9.1
2017-Sep-18 13:00N 54°19' W 130°35'5 9.1
2017-Sep-18 12:30N 54°15' W 130°31'5 9.4
2017-Sep-18 12:00N 54°11' W 130°27'5 9.4
2017-Sep-18 11:30N 54°07' W 130°23'5 9.3
2017-Sep-18 11:00N 54°04' W 130°16'4 8.9
2017-Sep-18 10:30N 53°60' W 130°13'5 9.2
2017-Sep-18 10:00N 53°55' W 130°11'4 8.7
2017-Sep-18 09:30N 53°53' W 130°05'103 8.3
2017-Sep-17 21:06N 52°29' W 128°27'1 9.2
2017-Sep-17 20:58N 52°27' W 128°27'4 8.9
2017-Sep-17 20:30N 52°24' W 128°31'20 6.8
2017-Sep-17 17:34N 52°09' W 128°08'1 7.9
2017-Sep-17 17:30N 52°09' W 128°08'4 8.5
2017-Sep-17 17:00N 52°05' W 128°05'6 8.9
2017-Sep-17 16:23N 52°04' W 127°56'3 8.7
2017-Sep-17 16:00N 52°01' W 127°56'5 9.2
2017-Sep-17 15:30N 51°56' W 127°56'5 9.1
2017-Sep-17 15:00N 51°52' W 127°56'5 9.3
2017-Sep-17 14:30N 51°47' W 127°55'5 9.4
2017-Sep-17 14:00N 51°42' W 127°54'5 9.4
2017-Sep-17 13:30N 51°38' W 127°53'4 8.8
2017-Sep-17 13:00N 51°33' W 127°52'4 8.8
2017-Sep-17 12:30N 51°29' W 127°51'5 8.6
2017-Sep-17 11:58N 51°24' W 127°52'6 8.6
2017-Sep-17 11:13N 51°18' W 127°52'3 8.9
2017-Sep-17 10:51N 51°15' W 127°52'3 9.0
2017-Sep-17 10:30N 51°12' W 127°51'5 9.2
2017-Sep-17 10:00N 51°07' W 127°48'5 9.7
2017-Sep-17 09:30N 51°04' W 127°42'5 9.9
2017-Sep-17 09:00N 51°01' W 127°37'5 9.5
2017-Sep-17 08:30N 50°58' W 127°31'5 9.8
2017-Sep-17 08:00N 50°55' W 127°25'5 9.3
2017-Sep-17 07:29N 50°52' W 127°18'5 9.4
2017-Sep-17 06:58N 50°50' W 127°12'4 9.1
2017-Sep-17 06:30N 50°47' W 127°06'10 8.8
2017-Sep-17 05:21N 50°41' W 126°53'4 8.3
2017-Sep-17 04:49N 50°38' W 126°48'3 8.9
2017-Sep-17 04:29N 50°36' W 126°45'5 8.6
2017-Sep-17 03:57N 50°32' W 126°41'4 9.5
2017-Sep-17 03:30N 50°31' W 126°35'5 9.7
2017-Sep-17 03:00N 50°30' W 126°27'6 9.6
2017-Sep-17 02:23N 50°30' W 126°18'4 9.6
2017-Sep-17 02:00N 50°29' W 126°12'1710.9
2017-Sep-17 00:26N 50°23' W 125°47'1310.9
2017-Sep-16 23:13N 50°20' W 125°27'2 8.7
2017-Sep-16 23:00N 50°19' W 125°25'5 9.6
2017-Sep-16 22:30N 50°14' W 125°23'5 9.1
2017-Sep-16 22:00N 50°10' W 125°21'3 5.7
2017-Sep-16 21:31N 50°07' W 125°19'2 3.9
2017-Sep-16 21:00N 50°06' W 125°17'2 4.2
2017-Sep-16 20:30N 50°04' W 125°15'2 4.5
2017-Sep-16 20:00N 50°02' W 125°14'3 6.1
2017-Sep-16 19:30N 49°60' W 125°12'4 8.7
2017-Sep-16 19:00N 49°57' W 125°06'5 9.0
2017-Sep-16 18:30N 49°54' W 125°01'4 9.0
2017-Sep-16 18:00N 49°51' W 124°55'4 8.5
2017-Sep-16 17:30N 49°49' W 124°50'4 8.5
2017-Sep-16 17:00N 49°46' W 124°45'4 8.5
2017-Sep-16 16:30N 49°43' W 124°40'4 8.8
2017-Sep-16 16:00N 49°40' W 124°35'5 9.3
2017-Sep-16 15:30N 49°37' W 124°29'5 9.2
2017-Sep-16 15:00N 49°35' W 124°23'4 8.9
2017-Sep-16 14:30N 49°33' W 124°17'4 8.6
2017-Sep-16 14:00N 49°31' W 124°12'4 8.7
2017-Sep-16 13:30N 49°28' W 124°06'4 8.6
2017-Sep-16 13:00N 49°26' W 124°01'4 8.3
2017-Sep-16 12:30N 49°24' W 123°55'4 8.6
2017-Sep-16 12:00N 49°22' W 123°49'4 8.3
2017-Sep-16 11:30N 49°19' W 123°44'4 8.3
2017-Sep-16 11:00N 49°16' W 123°39'4 8.3
2017-Sep-16 10:30N 49°14' W 123°34'4 8.4
2017-Sep-16 10:00N 49°11' W 123°30'4 8.8
2017-Sep-16 09:30N 49°07' W 123°26'4 9.0
2017-Sep-16 09:00N 49°04' W 123°21'5 9.1
2017-Sep-16 08:30N 49°01' W 123°16'5 9.2
2017-Sep-16 08:00N 48°58' W 123°11'4 8.8
2017-Sep-16 07:30N 48°55' W 123°05'5 9.2
2017-Sep-16 07:00N 48°52' W 123°00'5 9.4
2017-Sep-16 06:30N 48°49' W 122°55'4 9.0
2017-Sep-16 06:00N 48°47' W 122°49'5 9.0
2017-Sep-16 05:30N 48°43' W 122°44'4 8.1
2017-Sep-16 05:00N 48°39' W 122°43'4 7.9
2017-Sep-16 04:30N 48°36' W 122°45'4 7.8
2017-Sep-16 04:00N 48°32' W 122°44'4 8.1
2017-Sep-16 03:30N 48°28' W 122°44'4 8.1
2017-Sep-16 02:59N 48°24' W 122°44'19 8.3
2017-Sep-16 00:43N 48°05' W 122°38'310.8
2017-Sep-16 00:27N 48°02' W 122°38'510.7
2017-Sep-16 00:00N 47°58' W 122°34'5 9.8
2017-Sep-15 23:30N 47°55' W 122°29'5 9.4
2017-Sep-15 23:00N 47°50' W 122°27'5 9.1
2017-Sep-15 22:30N 47°46' W 122°26'5 9.4
2017-Sep-15 22:00N 47°41' W 122°27'4 7.9
2017-Sep-15 21:30N 47°38' W 122°24'3 5.6
2017-Sep-15 21:00N 47°35' W 122°22'0 0.1
2017-Sep-15 20:30N 47°35' W 122°22'1 2.9
2017-Sep-15 20:01N 47°34' W 122°21'2 3.5
2017-Sep-15 19:30N 47°32' W 122°20'0 0.4
2017-Sep-15 19:00N 47°32' W 122°20'0 0.2
2017-Sep-15 18:30N 47°32' W 122°20'0 0.0
2017-Sep-15 18:00N 47°32' W 122°20'0 0.0
2017-Sep-15 17:30N 47°32' W 122°20'0 0.0
2017-Sep-15 17:00N 47°32' W 122°20'0 0.0
2017-Sep-15 16:30N 47°32' W 122°20'0 0.0
2017-Sep-15 16:00N 47°32' W 122°20'0 0.1
2017-Sep-15 15:30N 47°32' W 122°20'0 0.0
2017-Sep-15 15:00N 47°32' W 122°20'0 0.0
2017-Sep-15 14:30N 47°32' W 122°20'0 0.0
2017-Sep-15 14:00N 47°32' W 122°20'0 0.0
2017-Sep-15 13:30N 47°32' W 122°20'0 0.0
2017-Sep-15 13:00N 47°32' W 122°20'0 0.0
2017-Sep-15 12:30N 47°32' W 122°20'0 0.0
2017-Sep-15 12:00N 47°32' W 122°20'0 0.0
2017-Sep-15 11:30N 47°32' W 122°20'0 0.0
2017-Sep-15 11:00N 47°32' W 122°20'0 0.0
2017-Sep-15 10:30N 47°32' W 122°20'0 0.0
2017-Sep-15 10:00N 47°32' W 122°20'0 0.0
2017-Sep-15 09:30N 47°32' W 122°20'0 0.0
2017-Sep-15 09:00N 47°32' W 122°20'0 0.0
2017-Sep-15 08:30N 47°32' W 122°20'0 0.0
2017-Sep-15 08:00N 47°32' W 122°20'0 0.0
2017-Sep-15 07:30N 47°32' W 122°20'0 0.0
2017-Sep-15 07:00N 47°32' W 122°20'0 0.0
2017-Sep-15 06:30N 47°32' W 122°20'0 0.0
2017-Sep-15 06:00N 47°32' W 122°20'0 0.0
2017-Sep-15 05:31N 47°32' W 122°20'1 2.9
2017-Sep-15 05:00N 47°34' W 122°21'2 3.4
2017-Sep-15 04:30N 47°35' W 122°21'0 0.0
2017-Sep-15 04:00N 47°35' W 122°21'0 0.0
2017-Sep-15 03:30N 47°35' W 122°21'0 0.0
2017-Sep-15 03:00N 47°35' W 122°21'0 0.0
2017-Sep-15 02:30N 47°35' W 122°21'0 0.6
2017-Sep-15 02:00N 47°35' W 122°22'3 6.2
2017-Sep-15 01:30N 47°32' W 122°20'  

Dump ship's entire track history